createdAt,value
2022-08-29T00:02:47.228Z,77.90
2022-08-29T00:05:55.014Z,78.14
2022-08-29T00:09:02.794Z,78.14
2022-08-29T00:12:10.468Z,78.44
2022-08-29T00:15:18.269Z,78.55
2022-08-29T00:18:26.081Z,78.58
2022-08-29T00:21:33.982Z,78.99
2022-08-29T00:24:41.852Z,79.19
2022-08-29T00:27:50.210Z,79.09
2022-08-29T00:30:59.394Z,79.19
2022-08-29T00:34:07.174Z,78.78
2022-08-29T00:37:15.360Z,79.43
2022-08-29T00:40:23.577Z,79.50
2022-08-29T00:43:31.387Z,79.50
2022-08-29T00:46:38.985Z,79.29
2022-08-29T00:49:47.180Z,79.29
2022-08-29T00:52:55.029Z,78.78
2022-08-29T00:56:02.689Z,79.19
2022-08-29T00:59:10.588Z,79.33
2022-08-29T01:02:18.019Z,79.53
2022-08-29T01:05:26.092Z,79.74
2022-08-29T01:08:34.162Z,79.94
2022-08-29T01:11:42.426Z,80.29
2022-08-29T01:14:50.849Z,80.38
2022-08-29T01:17:58.695Z,80.49
2022-08-29T01:21:06.676Z,80.79
2022-08-29T01:24:14.704Z,80.79
2022-08-29T01:27:22.017Z,81.20
2022-08-29T01:30:29.688Z,81.30
2022-08-29T01:33:37.528Z,81.95
2022-08-29T01:36:45.301Z,82.21
2022-08-29T01:39:53.789Z,82.52
2022-08-29T01:43:01.642Z,82.52
2022-08-29T01:46:09.534Z,82.73
2022-08-29T01:49:16.861Z,82.82
2022-08-29T01:52:25.142Z,82.52
2022-08-29T01:55:32.562Z,82.42
2022-08-29T01:58:40.335Z,82.62
2022-08-29T02:01:48.198Z,82.42
2022-08-29T02:04:56.057Z,81.98
2022-08-29T02:08:03.865Z,82.07
2022-08-29T02:11:12.059Z,81.67
2022-08-29T02:14:19.902Z,81.67
2022-08-29T02:17:28.086Z,81.37
2022-08-29T02:20:36.280Z,81.46
2022-08-29T02:23:43.661Z,81.77
2022-08-29T02:26:51.451Z,82.01
2022-08-29T02:29:59.383Z,82.07
2022-08-29T02:33:06.754Z,82.01
2022-08-29T02:36:15.394Z,81.67
2022-08-29T02:39:23.175Z,81.81
2022-08-29T02:42:30.725Z,81.77
2022-08-29T02:45:38.856Z,81.67
2022-08-29T02:48:49.251Z,81.46
2022-08-29T02:51:51.606Z,80.92
2022-08-29T02:55:00.123Z,80.62
2022-08-29T02:58:08.289Z,80.41
2022-08-29T03:01:16.391Z,80.27
2022-08-29T03:04:23.961Z,79.97
2022-08-29T03:07:31.502Z,80.07
2022-08-29T03:10:38.993Z,79.97
2022-08-29T03:13:46.674Z,79.97
2022-08-29T03:16:54.012Z,80.17
2022-08-29T03:20:01.965Z,79.77
2022-08-29T03:23:09.826Z,79.77
2022-08-29T03:26:17.647Z,79.66
2022-08-29T03:29:25.839Z,79.42
2022-08-29T03:32:33.565Z,79.32
2022-08-29T03:35:41.316Z,79.42
2022-08-29T03:38:48.981Z,78.98
2022-08-29T03:41:56.995Z,79.08
2022-08-29T03:45:05.067Z,78.88
2022-08-29T03:48:12.734Z,78.57
2022-08-29T03:51:20.730Z,78.57
2022-08-29T03:54:28.556Z,78.64
2022-08-29T03:57:36.334Z,78.13
2022-08-29T04:00:44.005Z,78.03
2022-08-29T04:03:51.439Z,77.93
2022-08-29T04:06:59.684Z,77.83
2022-08-29T04:10:07.582Z,77.89
2022-08-29T04:13:15.349Z,77.79
2022-08-29T04:16:23.593Z,77.79
2022-08-29T04:19:31.340Z,77.89
2022-08-29T04:22:39.009Z,77.55
2022-08-29T04:25:47.122Z,77.55
2022-08-29T04:28:54.373Z,77.34
2022-08-29T04:32:02.324Z,77.65
2022-08-29T04:35:10.302Z,77.45
2022-08-29T04:38:17.656Z,77.45
2022-08-29T04:41:25.743Z,77.75
2022-08-29T04:44:34.086Z,77.86
2022-08-29T04:47:41.498Z,78.16
2022-08-29T04:50:49.459Z,78.06
2022-08-29T04:53:57.158Z,78.26
2022-08-29T04:57:04.978Z,78.46
2022-08-29T05:00:13.086Z,78.36
2022-08-29T05:03:20.860Z,78.42
2022-08-29T05:06:28.656Z,78.53
2022-08-29T05:09:36.773Z,78.42
2022-08-29T05:12:44.545Z,78.73
2022-08-29T05:15:52.281Z,78.83
2022-08-29T05:18:59.984Z,79.03
2022-08-29T05:22:08.277Z,79.03
2022-08-29T05:25:18.547Z,79.50
2022-08-29T05:28:15.916Z,79.40
2022-08-29T05:31:24.376Z,78.89
2022-08-29T05:34:35.079Z,79.34
2022-08-29T05:37:31.891Z,79.40
2022-08-29T05:40:39.736Z,79.30
2022-08-29T05:43:47.133Z,79.10
2022-08-29T05:46:55.364Z,78.89
2022-08-29T05:50:03.012Z,78.75
2022-08-29T05:53:10.744Z,78.86
2022-08-29T05:56:18.907Z,78.86
2022-08-29T05:59:26.735Z,78.75
2022-08-29T06:02:34.591Z,78.42
2022-08-29T06:05:42.803Z,77.87
2022-08-29T06:08:50.369Z,77.87
2022-08-29T06:11:58.060Z,77.03
2022-08-29T06:15:06.059Z,76.18
2022-08-29T06:18:13.501Z,76.48
2022-08-29T06:21:21.635Z,75.95
2022-08-29T06:24:29.654Z,75.34
2022-08-29T06:27:37.157Z,75.95
2022-08-29T06:30:45.849Z,75.84
2022-08-29T06:33:54.439Z,76.28
2022-08-29T06:37:02.409Z,76.25
2022-08-29T06:40:11.103Z,75.95
2022-08-29T06:43:19.347Z,75.74
2022-08-29T06:46:27.617Z,75.40
2022-08-29T06:49:36.554Z,75.10
2022-08-29T06:52:47.070Z,75.31
2022-08-29T06:55:45.402Z,75.07
2022-08-29T06:58:55.405Z,75.31
2022-08-29T07:02:03.362Z,75.40
2022-08-29T07:05:11.885Z,75.71
2022-08-29T07:08:20.216Z,76.21
2022-08-29T07:11:28.690Z,76.21
2022-08-29T07:14:37.512Z,76.01
2022-08-29T07:17:45.651Z,76.31
2022-08-29T07:20:53.462Z,76.42
2022-08-29T07:24:01.501Z,76.42
2022-08-29T07:27:08.995Z,76.28
2022-08-29T07:30:16.735Z,76.18
2022-08-29T07:33:24.888Z,75.84
2022-08-29T07:36:34.317Z,75.20
2022-08-29T07:39:42.239Z,73.85
2022-08-29T07:42:50.058Z,73.72
2022-08-29T07:45:57.817Z,72.67
2022-08-29T07:49:05.704Z,72.88
2022-08-29T07:52:13.834Z,72.97
2022-08-29T07:55:21.962Z,73.38
2022-08-29T07:58:29.914Z,74.62
2022-08-29T08:01:37.795Z,75.33
2022-08-29T08:04:45.565Z,74.96
2022-08-29T08:07:55.610Z,75.29
2022-08-29T08:10:53.378Z,74.58
2022-08-29T08:14:01.544Z,74.38
2022-08-29T08:17:09.561Z,74.05
2022-08-29T08:20:18.108Z,73.71
2022-08-29T08:23:26.139Z,72.97
2022-08-29T08:26:34.044Z,72.97
2022-08-29T08:29:42.454Z,74.01
2022-08-29T08:32:54.500Z,74.52
2022-08-29T08:35:51.916Z,74.32
2022-08-29T08:38:59.848Z,73.58
2022-08-29T08:42:07.189Z,73.04
2022-08-29T08:45:15.410Z,72.20
2022-08-29T08:48:23.264Z,70.86
2022-08-29T08:51:31.119Z,71.26
2022-08-29T08:54:39.502Z,70.46
2022-08-29T08:57:47.084Z,70.66
2022-08-29T09:00:55.721Z,71.77
2022-08-29T09:04:03.746Z,70.86
2022-08-29T09:07:11.645Z,71.47
2022-08-29T09:10:20.215Z,72.10
2022-08-29T09:13:27.819Z,72.00
2022-08-29T09:16:36.000Z,73.10
2022-08-29T09:19:44.392Z,72.17
2022-08-29T09:22:52.022Z,72.56
2022-08-29T09:25:59.985Z,72.27
2022-08-29T09:29:07.925Z,72.43
2022-08-29T09:32:21.631Z,71.93
2022-08-29T09:35:20.037Z,71.93
2022-08-29T09:38:28.117Z,72.03
2022-08-29T09:41:36.000Z,71.73
2022-08-29T09:44:44.092Z,72.43
2022-08-29T09:47:52.437Z,73.33
2022-08-29T09:51:00.344Z,72.00
2022-08-29T09:54:08.324Z,71.46
2022-08-29T09:57:16.323Z,71.23
2022-08-29T10:00:23.927Z,70.43
2022-08-29T10:03:34.570Z,71.12
2022-08-29T10:06:47.261Z,70.53
2022-08-29T10:09:45.192Z,70.73
2022-08-29T10:12:53.433Z,70.39
2022-08-29T10:16:01.692Z,69.86
2022-08-29T10:19:09.403Z,68.43
2022-08-29T10:22:17.765Z,68.19
2022-08-29T10:25:25.782Z,67.40
2022-08-29T10:28:33.737Z,67.59
2022-08-29T10:31:41.915Z,68.19
2022-08-29T10:34:49.948Z,66.86
2022-08-29T10:37:58.036Z,66.79
2022-08-29T10:41:06.073Z,66.79
2022-08-29T10:44:13.982Z,66.76
2022-08-29T10:47:21.954Z,66.79
2022-08-29T10:50:45.855Z,66.76
2022-08-29T10:53:35.349Z,64.93
2022-08-29T10:56:43.547Z,65.47
2022-08-29T10:59:51.961Z,63.91
2022-08-29T11:03:00.062Z,63.08
2022-08-29T11:06:08.195Z,62.59
2022-08-29T11:09:16.423Z,63.81
2022-08-29T11:12:24.163Z,64.04
2022-08-29T11:15:32.515Z,63.21
2022-08-29T11:18:40.613Z,62.71
2022-08-29T11:21:48.737Z,62.97
2022-08-29T11:24:57.036Z,63.44
2022-08-29T11:28:04.638Z,62.54
2022-08-29T11:31:13.181Z,62.61
2022-08-29T11:34:21.742Z,62.08
2022-08-29T11:37:29.287Z,60.83
2022-08-29T11:43:43.367Z,59.53
2022-08-29T11:46:53.466Z,60.96
2022-08-29T11:49:54.319Z,60.93
2022-08-29T11:53:02.459Z,59.64
2022-08-29T11:56:10.540Z,59.64
2022-08-29T11:59:18.479Z,60.13
2022-08-29T12:02:26.723Z,59.94
2022-08-29T12:05:34.794Z,59.34
2022-08-29T12:08:42.745Z,59.47
2022-08-29T12:11:50.996Z,60.39
2022-08-29T12:14:58.248Z,60.65
2022-08-29T12:18:06.559Z,61.52
2022-08-29T12:21:14.841Z,59.69
2022-08-29T12:24:22.232Z,58.84
2022-08-29T12:27:30.473Z,57.09
2022-08-29T12:30:38.294Z,56.27
2022-08-29T12:33:45.986Z,56.37
2022-08-29T12:36:54.457Z,55.44
2022-08-29T12:40:02.472Z,55.22
2022-08-29T12:43:10.349Z,53.78
2022-08-29T12:46:17.976Z,53.11
2022-08-29T12:49:26.074Z,54.16
2022-08-29T12:52:33.674Z,55.15
2022-08-29T12:55:41.605Z,56.07
2022-08-29T12:58:49.794Z,56.04
2022-08-29T13:01:57.209Z,55.52
2022-08-29T13:05:05.558Z,55.27
2022-08-29T13:08:13.681Z,57.12
2022-08-29T13:11:21.664Z,58.17
2022-08-29T13:14:30.631Z,58.59
2022-08-29T13:17:39.123Z,59.22
2022-08-29T13:20:46.555Z,59.59
2022-08-29T13:23:54.665Z,58.27
2022-08-29T13:27:04.745Z,57.52
2022-08-29T13:30:02.978Z,56.62
2022-08-29T13:33:10.734Z,56.62
2022-08-29T13:36:18.330Z,55.53
2022-08-29T13:39:25.910Z,54.41
2022-08-29T13:42:33.682Z,54.71
2022-08-29T13:45:41.523Z,55.50
2022-08-29T13:48:49.135Z,55.80
2022-08-29T13:51:57.267Z,55.03
2022-08-29T13:55:05.104Z,54.96
2022-08-29T13:58:12.812Z,55.88
2022-08-29T14:04:38.074Z,56.68
2022-08-29T14:07:31.296Z,54.75
2022-08-29T14:10:39.483Z,54.66
2022-08-29T14:13:46.827Z,55.35
2022-08-29T14:16:55.007Z,54.36
2022-08-29T14:20:03.065Z,53.74
2022-08-29T14:23:10.386Z,53.39
2022-08-29T14:26:18.955Z,51.45
2022-08-29T14:29:29.989Z,50.88
2022-08-29T14:32:27.759Z,51.89
2022-08-29T14:35:35.812Z,51.87
2022-08-29T14:38:39.104Z,52.69
2022-08-29T14:41:47.227Z,52.81
2022-08-29T14:44:54.853Z,53.81
2022-08-29T14:48:02.759Z,53.41
2022-08-29T14:51:10.410Z,53.91
2022-08-29T14:54:18.246Z,54.93
2022-08-29T14:57:26.220Z,54.50
2022-08-29T15:00:34.045Z,53.21
2022-08-29T15:03:41.865Z,49.61
2022-08-29T15:06:49.923Z,50.18
2022-08-29T15:09:57.221Z,49.58
2022-08-29T15:13:05.449Z,51.65
2022-08-29T15:16:13.721Z,51.15
2022-08-29T15:22:26.622Z,51.45
2022-08-29T15:25:34.630Z,50.08
2022-08-29T15:28:41.902Z,50.18
2022-08-29T15:31:50.036Z,50.40
2022-08-29T15:34:57.885Z,51.20
2022-08-29T15:38:05.804Z,51.28
2022-08-29T15:41:14.090Z,50.80
2022-08-29T15:44:21.980Z,50.93
2022-08-29T15:47:30.022Z,51.82
2022-08-29T15:50:38.403Z,52.84
2022-08-29T15:53:46.225Z,52.14
2022-08-29T15:56:53.955Z,52.57
2022-08-29T16:00:01.572Z,53.36
2022-08-29T16:03:10.061Z,53.89
2022-08-29T16:06:17.739Z,54.28
2022-08-29T16:09:25.515Z,54.58
2022-08-29T16:12:33.701Z,54.79
2022-08-29T16:15:41.674Z,55.28
2022-08-29T16:18:49.024Z,55.61
2022-08-29T16:21:56.875Z,55.80
2022-08-29T16:25:04.396Z,56.01
2022-08-29T16:28:12.546Z,55.80
2022-08-29T16:31:20.649Z,55.11
2022-08-29T16:34:28.180Z,54.81
2022-08-29T16:37:36.562Z,55.01
2022-08-29T16:40:44.152Z,57.10
2022-08-29T16:43:51.883Z,55.80
2022-08-29T16:47:00.054Z,55.71
2022-08-29T16:50:07.796Z,56.43
2022-08-29T16:53:16.027Z,58.12
2022-08-29T16:56:24.068Z,56.13
2022-08-29T16:59:32.029Z,58.33
2022-08-29T17:02:40.705Z,59.35
2022-08-29T17:05:48.811Z,57.98
2022-08-29T17:08:56.362Z,57.98
2022-08-29T17:12:04.145Z,57.68
2022-08-29T17:15:12.039Z,60.48
2022-08-29T17:18:19.712Z,58.98
2022-08-29T17:21:27.205Z,58.78
2022-08-29T17:24:34.630Z,59.78
2022-08-29T17:27:51.384Z,60.61
2022-08-29T17:30:47.615Z,61.04
2022-08-29T17:33:55.472Z,61.13
2022-08-29T17:37:03.336Z,62.23
2022-08-29T17:40:11.471Z,60.33
2022-08-29T17:43:19.317Z,61.26
2022-08-29T17:46:26.724Z,61.26
2022-08-29T17:49:34.348Z,62.79
2022-08-29T17:52:42.560Z,62.99
2022-08-29T17:55:50.342Z,62.99
2022-08-29T17:58:58.101Z,63.49
2022-08-29T18:02:06.294Z,64.09
2022-08-29T18:05:14.074Z,63.42
2022-08-29T18:08:21.837Z,63.53
2022-08-29T18:11:29.907Z,64.42
2022-08-29T18:14:37.269Z,64.12
2022-08-29T18:17:45.436Z,64.45
2022-08-29T18:20:53.548Z,64.95
2022-08-29T18:24:00.875Z,65.48
2022-08-29T18:27:09.033Z,65.39
2022-08-29T18:30:17.113Z,65.92
2022-08-29T18:33:28.488Z,66.22
2022-08-29T18:36:29.947Z,66.95
2022-08-29T18:39:38.097Z,66.75
2022-08-29T18:42:45.389Z,67.38
2022-08-29T18:45:53.466Z,67.99
2022-08-29T18:49:00.838Z,68.69
2022-08-29T18:52:08.931Z,65.88
2022-08-29T18:55:17.222Z,64.88
2022-08-29T18:58:24.702Z,64.65
2022-08-29T19:01:32.842Z,64.84
2022-08-29T19:04:40.956Z,65.35
2022-08-29T19:07:48.925Z,65.65
2022-08-29T19:10:56.818Z,65.95
2022-08-29T19:14:04.337Z,66.58
2022-08-29T19:17:13.219Z,67.08
2022-08-29T19:20:21.092Z,67.49
2022-08-29T19:23:28.983Z,68.32
2022-08-29T19:26:37.441Z,68.72
2022-08-29T19:29:45.092Z,69.02
2022-08-29T19:32:46.703Z,69.46
2022-08-29T19:35:54.167Z,70.39
2022-08-29T19:39:01.687Z,70.89
2022-08-29T19:42:09.879Z,71.33
2022-08-29T19:45:13.290Z,71.43
2022-08-29T19:48:21.131Z,71.73
2022-08-29T19:51:30.163Z,72.24
2022-08-29T19:54:38.577Z,72.77
2022-08-29T19:57:47.346Z,73.38
2022-08-29T20:00:55.557Z,73.88
2022-08-29T20:04:03.555Z,74.62
2022-08-29T20:07:11.275Z,75.12
2022-08-29T20:10:21.134Z,75.72
2022-08-29T20:13:35.229Z,76.46
2022-08-29T20:16:33.257Z,76.76
2022-08-29T20:19:41.070Z,77.17
2022-08-29T20:22:48.392Z,77.47
2022-08-29T20:25:56.493Z,77.70
2022-08-29T20:29:03.893Z,78.01
2022-08-29T20:32:11.413Z,78.96
2022-08-29T20:35:19.626Z,79.46
2022-08-29T20:38:26.970Z,80.00
2022-08-29T20:41:35.109Z,80.60
2022-08-29T20:44:43.152Z,81.04
2022-08-29T20:47:50.580Z,81.45
2022-08-29T20:50:58.711Z,81.75
2022-08-29T20:54:06.932Z,81.75
2022-08-29T20:57:14.976Z,81.85
2022-08-29T21:00:22.653Z,82.29
2022-08-29T21:03:30.375Z,82.70
2022-08-29T21:06:38.356Z,82.79
2022-08-29T21:09:46.416Z,82.93
2022-08-29T21:12:54.089Z,83.14
2022-08-29T21:16:01.959Z,83.34
2022-08-29T21:19:09.839Z,83.78
2022-08-29T21:22:19.755Z,83.98
2022-08-29T21:25:19.919Z,84.29
2022-08-29T21:28:27.753Z,84.39
2022-08-29T21:31:36.016Z,84.29
2022-08-29T21:34:43.741Z,84.73
2022-08-29T21:37:51.404Z,84.53
2022-08-29T21:40:59.536Z,84.53
2022-08-29T21:44:07.157Z,84.73
2022-08-29T21:47:17.751Z,85.24
2022-08-29T21:50:15.630Z,85.48
2022-08-29T21:53:22.967Z,85.99
2022-08-29T21:56:31.241Z,86.08
2022-08-29T21:59:39.043Z,86.19
2022-08-29T22:02:46.453Z,86.39
2022-08-29T22:05:54.683Z,86.49
2022-08-29T22:09:02.364Z,86.53
2022-08-29T22:12:10.156Z,86.93
2022-08-29T22:15:17.997Z,87.04
2022-08-29T22:18:25.347Z,87.13
2022-08-29T22:21:33.650Z,86.93
2022-08-29T22:24:41.740Z,86.83
2022-08-29T22:27:49.148Z,86.73
2022-08-29T22:30:57.445Z,86.83
2022-08-29T22:34:05.582Z,87.24
2022-08-29T22:37:12.912Z,87.38
2022-08-29T22:40:21.066Z,87.79
2022-08-29T22:43:28.853Z,87.48
2022-08-29T22:46:36.514Z,88.09
2022-08-29T22:49:44.393Z,88.09
2022-08-29T22:52:52.286Z,87.88
2022-08-29T22:55:59.918Z,88.09
2022-08-29T22:59:07.840Z,88.23
2022-08-29T23:02:16.293Z,88.64
2022-08-29T23:05:24.070Z,88.53
2022-08-29T23:08:31.970Z,88.53
2022-08-29T23:11:40.081Z,89.08
2022-08-29T23:14:47.821Z,89.63
2022-08-29T23:17:55.111Z,90.14
2022-08-29T23:21:04.924Z,90.48
2022-08-29T23:24:12.245Z,91.09
2022-08-29T23:27:20.556Z,91.64
2022-08-29T23:30:28.855Z,91.64
2022-08-29T23:33:36.227Z,91.44
2022-08-29T23:36:44.326Z,90.93
2022-08-29T23:39:52.361Z,91.94
2022-08-29T23:42:59.740Z,92.09
2022-08-29T23:46:08.011Z,92.60
2022-08-29T23:49:15.724Z,93.00
2022-08-29T23:52:23.133Z,92.60
2022-08-29T23:55:31.275Z,92.64
2022-08-29T23:58:39.094Z,93.25
